sensor_id;sensor_type;location;lat;lon;timestamp;temperature;humidity
74511;DHT22;62991;50.040;18.400;2022-09-12T00:00:32;16.50;70.60
74511;DHT22;62991;50.040;18.400;2022-09-12T00:03:33;16.50;70.80
74511;DHT22;62991;50.040;18.400;2022-09-12T00:06:35;16.50;70.80
74511;DHT22;62991;50.040;18.400;2022-09-12T00:09:36;16.50;70.80
74511;DHT22;62991;50.040;18.400;2022-09-12T00:12:37;16.50;70.90
74511;DHT22;62991;50.040;18.400;2022-09-12T00:15:42;16.50;70.90
74511;DHT22;62991;50.040;18.400;2022-09-12T00:18:44;16.50;70.90
74511;DHT22;62991;50.040;18.400;2022-09-12T00:21:46;16.50;71.00
74511;DHT22;62991;50.040;18.400;2022-09-12T00:24:46;16.50;71.00
74511;DHT22;62991;50.040;18.400;2022-09-12T00:27:47;16.40;71.00
74511;DHT22;62991;50.040;18.400;2022-09-12T00:30:48;16.40;71.10
74511;DHT22;62991;50.040;18.400;2022-09-12T00:33:49;16.40;71.10
74511;DHT22;62991;50.040;18.400;2022-09-12T00:36:50;16.40;71.10
74511;DHT22;62991;50.040;18.400;2022-09-12T00:39:51;16.50;71.10
74511;DHT22;62991;50.040;18.400;2022-09-12T00:42:52;16.50;71.00
74511;DHT22;62991;50.040;18.400;2022-09-12T00:45:53;16.50;71.00
74511;DHT22;62991;50.040;18.400;2022-09-12T00:49:57;16.40;71.00
74511;DHT22;62991;50.040;18.400;2022-09-12T00:53:10;16.50;71.00
74511;DHT22;62991;50.040;18.400;2022-09-12T00:56:12;16.40;71.00
74511;DHT22;62991;50.040;18.400;2022-09-12T00:59:23;16.40;71.00
74511;DHT22;62991;50.040;18.400;2022-09-12T01:02:24;16.40;71.10
74511;DHT22;62991;50.040;18.400;2022-09-12T01:05:26;16.40;71.10
74511;DHT22;62991;50.040;18.400;2022-09-12T01:08:27;16.40;71.10
74511;DHT22;62991;50.040;18.400;2022-09-12T01:11:30;16.40;71.10
74511;DHT22;62991;50.040;18.400;2022-09-12T01:14:32;16.40;71.20
74511;DHT22;62991;50.040;18.400;2022-09-12T01:17:48;16.40;71.10
74511;DHT22;62991;50.040;18.400;2022-09-12T01:21:05;16.40;71.10
74511;DHT22;62991;50.040;18.400;2022-09-12T01:31:36;16.30;71.20
74511;DHT22;62991;50.040;18.400;2022-09-12T01:34:59;16.20;71.20
74511;DHT22;62991;50.040;18.400;2022-09-12T01:38:25;16.20;71.20
74511;DHT22;62991;50.040;18.400;2022-09-12T01:41:41;16.20;71.30
74511;DHT22;62991;50.040;18.400;2022-09-12T01:48:34;16.10;71.30
74511;DHT22;62991;50.040;18.400;2022-09-12T01:51:58;16.10;71.20
74511;DHT22;62991;50.040;18.400;2022-09-12T01:55:22;16.10;71.40
74511;DHT22;62991;50.040;18.400;2022-09-12T01:58:28;16.10;71.40
74511;DHT22;62991;50.040;18.400;2022-09-12T02:01:38;16.00;71.40
74511;DHT22;62991;50.040;18.400;2022-09-12T02:04:59;16.00;71.50
74511;DHT22;62991;50.040;18.400;2022-09-12T02:08:17;16.00;71.40
74511;DHT22;62991;50.040;18.400;2022-09-12T02:11:20;15.90;71.50
74511;DHT22;62991;50.040;18.400;2022-09-12T02:14:33;15.90;71.40
74511;DHT22;62991;50.040;18.400;2022-09-12T02:17:40;15.90;71.40
74511;DHT22;62991;50.040;18.400;2022-09-12T02:20:42;15.90;71.50
74511;DHT22;62991;50.040;18.400;2022-09-12T02:23:47;15.80;71.50
74511;DHT22;62991;50.040;18.400;2022-09-12T02:26:54;15.80;71.50
74511;DHT22;62991;50.040;18.400;2022-09-12T02:29:55;15.80;71.50
74511;DHT22;62991;50.040;18.400;2022-09-12T02:33:22;15.80;71.50
74511;DHT22;62991;50.040;18.400;2022-09-12T02:36:48;15.70;71.50
74511;DHT22;62991;50.040;18.400;2022-09-12T02:39:54;15.70;71.50
74511;DHT22;62991;50.040;18.400;2022-09-12T02:42:56;15.70;71.30
74511;DHT22;62991;50.040;18.400;2022-09-12T02:45:57;15.70;71.30
74511;DHT22;62991;50.040;18.400;2022-09-12T02:48:58;15.70;71.30
74511;DHT22;62991;50.040;18.400;2022-09-12T02:52:00;15.70;71.40
74511;DHT22;62991;50.040;18.400;2022-09-12T02:55:04;15.70;71.30
74511;DHT22;62991;50.040;18.400;2022-09-12T02:58:09;15.70;71.20
74511;DHT22;62991;50.040;18.400;2022-09-12T03:01:27;15.70;71.20
74511;DHT22;62991;50.040;18.400;2022-09-12T03:04:52;15.70;71.20
74511;DHT22;62991;50.040;18.400;2022-09-12T03:08:21;15.70;71.20
74511;DHT22;62991;50.040;18.400;2022-09-12T03:24:46;15.60;71.30
74511;DHT22;62991;50.040;18.400;2022-09-12T03:27:57;15.60;71.40
74511;DHT22;62991;50.040;18.400;2022-09-12T03:30:58;15.60;71.40
74511;DHT22;62991;50.040;18.400;2022-09-12T03:33:59;15.60;71.40
74511;DHT22;62991;50.040;18.400;2022-09-12T03:37:00;15.60;71.40
74511;DHT22;62991;50.040;18.400;2022-09-12T03:40:03;15.60;71.40
74511;DHT22;62991;50.040;18.400;2022-09-12T03:43:06;15.60;71.40
74511;DHT22;62991;50.040;18.400;2022-09-12T03:46:07;15.60;71.40
74511;DHT22;62991;50.040;18.400;2022-09-12T03:49:08;15.60;71.30
74511;DHT22;62991;50.040;18.400;2022-09-12T03:52:10;15.70;71.30
74511;DHT22;62991;50.040;18.400;2022-09-12T03:55:10;15.70;71.30
74511;DHT22;62991;50.040;18.400;2022-09-12T03:58:11;15.70;71.20
74511;DHT22;62991;50.040;18.400;2022-09-12T04:01:15;15.70;71.20
74511;DHT22;62991;50.040;18.400;2022-09-12T04:04:16;15.70;71.10
74511;DHT22;62991;50.040;18.400;2022-09-12T04:07:17;15.70;71.00
74511;DHT22;62991;50.040;18.400;2022-09-12T04:10:18;15.70;71.00
74511;DHT22;62991;50.040;18.400;2022-09-12T04:13:19;15.70;70.90
74511;DHT22;62991;50.040;18.400;2022-09-12T04:16:19;15.60;70.90
74511;DHT22;62991;50.040;18.400;2022-09-12T04:19:20;15.60;70.90
74511;DHT22;62991;50.040;18.400;2022-09-12T04:22:21;15.60;70.80
74511;DHT22;62991;50.040;18.400;2022-09-12T04:25:22;15.60;70.70
74511;DHT22;62991;50.040;18.400;2022-09-12T04:28:24;15.60;70.70
74511;DHT22;62991;50.040;18.400;2022-09-12T04:31:25;15.60;70.70
74511;DHT22;62991;50.040;18.400;2022-09-12T04:34:29;15.60;70.70
74511;DHT22;62991;50.040;18.400;2022-09-12T04:37:30;15.60;70.60
74511;DHT22;62991;50.040;18.400;2022-09-12T04:40:31;15.60;70.60
74511;DHT22;62991;50.040;18.400;2022-09-12T04:43:32;15.60;70.60
74511;DHT22;62991;50.040;18.400;2022-09-12T04:46:36;15.60;70.50
74511;DHT22;62991;50.040;18.400;2022-09-12T04:49:38;15.60;70.60
74511;DHT22;62991;50.040;18.400;2022-09-12T04:52:38;15.60;70.60
74511;DHT22;62991;50.040;18.400;2022-09-12T04:55:39;15.60;70.60
74511;DHT22;62991;50.040;18.400;2022-09-12T04:58:40;15.60;70.60
74511;DHT22;62991;50.040;18.400;2022-09-12T05:01:41;15.60;70.60
74511;DHT22;62991;50.040;18.400;2022-09-12T05:04:42;15.60;70.70
74511;DHT22;62991;50.040;18.400;2022-09-12T05:07:43;15.60;70.70
74511;DHT22;62991;50.040;18.400;2022-09-12T05:10:44;15.60;70.70
74511;DHT22;62991;50.040;18.400;2022-09-12T05:13:45;15.60;70.70
74511;DHT22;62991;50.040;18.400;2022-09-12T05:16:46;15.60;70.70
74511;DHT22;62991;50.040;18.400;2022-09-12T05:19:47;15.60;70.70
74511;DHT22;62991;50.040;18.400;2022-09-12T05:22:48;15.50;70.70
74511;DHT22;62991;50.040;18.400;2022-09-12T05:25:53;15.50;70.60
74511;DHT22;62991;50.040;18.400;2022-09-12T05:28:54;15.50;70.60
74511;DHT22;62991;50.040;18.400;2022-09-12T05:31:55;15.50;70.60
74511;DHT22;62991;50.040;18.400;2022-09-12T05:34:55;15.50;70.50
74511;DHT22;62991;50.040;18.400;2022-09-12T05:37:56;15.50;70.60
74511;DHT22;62991;50.040;18.400;2022-09-12T05:41:08;15.50;70.60
74511;DHT22;62991;50.040;18.400;2022-09-12T05:44:11;15.50;70.60
74511;DHT22;62991;50.040;18.400;2022-09-12T05:47:13;15.60;70.50
74511;DHT22;62991;50.040;18.400;2022-09-12T05:50:14;15.60;70.40
74511;DHT22;62991;50.040;18.400;2022-09-12T05:53:15;15.60;70.30
74511;DHT22;62991;50.040;18.400;2022-09-12T05:56:18;15.60;70.20
74511;DHT22;62991;50.040;18.400;2022-09-12T05:59:20;15.60;70.10
74511;DHT22;62991;50.040;18.400;2022-09-12T06:02:21;15.60;70.10
74511;DHT22;62991;50.040;18.400;2022-09-12T06:05:21;15.60;70.00
74511;DHT22;62991;50.040;18.400;2022-09-12T06:08:22;15.60;69.90
74511;DHT22;62991;50.040;18.400;2022-09-12T06:11:25;15.60;69.80
74511;DHT22;62991;50.040;18.400;2022-09-12T06:14:26;15.60;69.70
74511;DHT22;62991;50.040;18.400;2022-09-12T06:17:26;15.60;69.50
74511;DHT22;62991;50.040;18.400;2022-09-12T06:20:27;15.60;69.50
74511;DHT22;62991;50.040;18.400;2022-09-12T06:23:28;15.60;69.30
74511;DHT22;62991;50.040;18.400;2022-09-12T06:26:29;15.60;69.20
74511;DHT22;62991;50.040;18.400;2022-09-12T06:29:30;15.60;69.10
74511;DHT22;62991;50.040;18.400;2022-09-12T06:32:32;15.50;68.90
74511;DHT22;62991;50.040;18.400;2022-09-12T06:35:37;15.50;68.90
74511;DHT22;62991;50.040;18.400;2022-09-12T06:38:38;15.50;68.80
74511;DHT22;62991;50.040;18.400;2022-09-12T06:41:39;15.50;68.80
74511;DHT22;62991;50.040;18.400;2022-09-12T06:44:40;15.50;68.80
74511;DHT22;62991;50.040;18.400;2022-09-12T06:47:41;15.60;68.70
74511;DHT22;62991;50.040;18.400;2022-09-12T06:50:41;15.60;68.50
74511;DHT22;62991;50.040;18.400;2022-09-12T06:53:43;15.70;68.50
74511;DHT22;62991;50.040;18.400;2022-09-12T06:56:44;15.70;68.70
74511;DHT22;62991;50.040;18.400;2022-09-12T06:59:45;15.80;68.60
74511;DHT22;62991;50.040;18.400;2022-09-12T07:02:46;15.90;68.40
74511;DHT22;62991;50.040;18.400;2022-09-12T07:05:47;15.90;68.10
74511;DHT22;62991;50.040;18.400;2022-09-12T07:08:47;15.90;67.90
74511;DHT22;62991;50.040;18.400;2022-09-12T07:11:48;15.90;67.80
74511;DHT22;62991;50.040;18.400;2022-09-12T07:14:49;15.90;67.70
74511;DHT22;62991;50.040;18.400;2022-09-12T07:17:50;15.90;67.70
74511;DHT22;62991;50.040;18.400;2022-09-12T07:20:50;16.00;67.70
74511;DHT22;62991;50.040;18.400;2022-09-12T07:23:51;16.00;67.60
74511;DHT22;62991;50.040;18.400;2022-09-12T07:26:54;16.00;67.50
74511;DHT22;62991;50.040;18.400;2022-09-12T07:29:55;16.00;67.50
74511;DHT22;62991;50.040;18.400;2022-09-12T07:32:56;16.10;67.50
74511;DHT22;62991;50.040;18.400;2022-09-12T07:36:00;16.10;67.30
74511;DHT22;62991;50.040;18.400;2022-09-12T07:39:03;16.10;67.10
74511;DHT22;62991;50.040;18.400;2022-09-12T07:42:03;16.10;66.90
74511;DHT22;62991;50.040;18.400;2022-09-12T07:45:04;16.10;66.90
74511;DHT22;62991;50.040;18.400;2022-09-12T07:48:06;16.20;66.80
74511;DHT22;62991;50.040;18.400;2022-09-12T07:51:09;16.20;66.60
74511;DHT22;62991;50.040;18.400;2022-09-12T07:54:10;16.20;66.40
74511;DHT22;62991;50.040;18.400;2022-09-12T07:57:11;16.20;66.30
74511;DHT22;62991;50.040;18.400;2022-09-12T08:00:12;16.20;66.20
74511;DHT22;62991;50.040;18.400;2022-09-12T08:03:13;16.20;66.00
74511;DHT22;62991;50.040;18.400;2022-09-12T08:06:16;16.20;66.00
74511;DHT22;62991;50.040;18.400;2022-09-12T08:09:19;16.20;66.00
74511;DHT22;62991;50.040;18.400;2022-09-12T08:12:20;16.30;65.90
74511;DHT22;62991;50.040;18.400;2022-09-12T08:15:21;16.30;65.80
74511;DHT22;62991;50.040;18.400;2022-09-12T08:18:22;16.40;65.70
74511;DHT22;62991;50.040;18.400;2022-09-12T08:21:25;16.40;65.50
74511;DHT22;62991;50.040;18.400;2022-09-12T08:24:26;16.40;65.30
74511;DHT22;62991;50.040;18.400;2022-09-12T08:27:27;16.40;65.20
74511;DHT22;62991;50.040;18.400;2022-09-12T08:30:28;16.40;65.20
74511;DHT22;62991;50.040;18.400;2022-09-12T08:33:29;16.40;65.20
74511;DHT22;62991;50.040;18.400;2022-09-12T08:36:33;16.40;65.10
74511;DHT22;62991;50.040;18.400;2022-09-12T08:39:34;16.40;65.00
74511;DHT22;62991;50.040;18.400;2022-09-12T08:45:56;16.40;65.00
74511;DHT22;62991;50.040;18.400;2022-09-12T08:49:00;16.40;65.00
74511;DHT22;62991;50.040;18.400;2022-09-12T08:55:33;16.50;65.10
74511;DHT22;62991;50.040;18.400;2022-09-12T08:58:41;16.60;65.20
74511;DHT22;62991;50.040;18.400;2022-09-12T09:01:44;16.70;65.20
74511;DHT22;62991;50.040;18.400;2022-09-12T09:04:55;16.80;65.10
74511;DHT22;62991;50.040;18.400;2022-09-12T09:15:20;16.90;64.80
74511;DHT22;62991;50.040;18.400;2022-09-12T09:18:11;17.00;64.60
74511;DHT22;62991;50.040;18.400;2022-09-12T09:21:30;17.00;64.50
74511;DHT22;62991;50.040;18.400;2022-09-12T09:24:56;17.10;64.40
74511;DHT22;62991;50.040;18.400;2022-09-12T09:27:58;17.10;64.40
74511;DHT22;62991;50.040;18.400;2022-09-12T09:31:01;17.10;64.40
74511;DHT22;62991;50.040;18.400;2022-09-12T09:34:21;17.20;64.40
74511;DHT22;62991;50.040;18.400;2022-09-12T09:37:43;17.20;64.20
74511;DHT22;62991;50.040;18.400;2022-09-12T09:41:24;17.30;64.00
74511;DHT22;62991;50.040;18.400;2022-09-12T09:44:28;17.30;64.00
74511;DHT22;62991;50.040;18.400;2022-09-12T09:47:29;17.30;64.00
74511;DHT22;62991;50.040;18.400;2022-09-12T09:50:30;17.30;63.80
74511;DHT22;62991;50.040;18.400;2022-09-12T09:53:50;17.40;63.60
74511;DHT22;62991;50.040;18.400;2022-09-12T09:56:52;17.40;63.30
74511;DHT22;62991;50.040;18.400;2022-09-12T09:59:53;17.40;63.00
74511;DHT22;62991;50.040;18.400;2022-09-12T10:03:00;17.40;62.70
74511;DHT22;62991;50.040;18.400;2022-09-12T10:09:25;17.40;62.30
74511;DHT22;62991;50.040;18.400;2022-09-12T10:12:27;17.40;62.10
74511;DHT22;62991;50.040;18.400;2022-09-12T10:15:28;17.40;61.90
74511;DHT22;62991;50.040;18.400;2022-09-12T10:18:42;17.40;61.80
74511;DHT22;62991;50.040;18.400;2022-09-12T10:21:50;17.40;61.60
74511;DHT22;62991;50.040;18.400;2022-09-12T10:24:57;17.40;61.60
74511;DHT22;62991;50.040;18.400;2022-09-12T10:27:59;17.40;61.60
74511;DHT22;62991;50.040;18.400;2022-09-12T10:31:00;17.40;61.70
74511;DHT22;62991;50.040;18.400;2022-09-12T10:34:02;17.50;61.60
74511;DHT22;62991;50.040;18.400;2022-09-12T10:37:07;17.50;61.50
74511;DHT22;62991;50.040;18.400;2022-09-12T10:40:22;17.60;61.10
74511;DHT22;62991;50.040;18.400;2022-09-12T10:43:33;17.60;60.80
74511;DHT22;62991;50.040;18.400;2022-09-12T10:46:34;17.60;60.80
74511;DHT22;62991;50.040;18.400;2022-09-12T10:49:34;17.60;60.90
74511;DHT22;62991;50.040;18.400;2022-09-12T10:52:39;17.60;60.90
74511;DHT22;62991;50.040;18.400;2022-09-12T10:59:19;17.70;60.80
74511;DHT22;62991;50.040;18.400;2022-09-12T11:05:36;17.80;60.60
74511;DHT22;62991;50.040;18.400;2022-09-12T11:15:39;17.80;60.60
74511;DHT22;62991;50.040;18.400;2022-09-12T11:18:58;17.90;60.60
74511;DHT22;62991;50.040;18.400;2022-09-12T11:32:15;18.00;60.20
74511;DHT22;62991;50.040;18.400;2022-09-12T11:35:28;18.00;60.00
74511;DHT22;62991;50.040;18.400;2022-09-12T11:41:38;18.00;60.20
74511;DHT22;62991;50.040;18.400;2022-09-12T11:44:45;18.00;60.30
74511;DHT22;62991;50.040;18.400;2022-09-12T11:47:52;18.10;60.20
74511;DHT22;62991;50.040;18.400;2022-09-12T11:50:54;18.10;60.10
74511;DHT22;62991;50.040;18.400;2022-09-12T11:57:24;18.20;60.10
74511;DHT22;62991;50.040;18.400;2022-09-12T12:03:41;18.30;60.00
74511;DHT22;62991;50.040;18.400;2022-09-12T12:09:50;18.50;59.70
74511;DHT22;62991;50.040;18.400;2022-09-12T12:12:53;18.50;59.60
74511;DHT22;62991;50.040;18.400;2022-09-12T12:15:58;18.60;59.50
74511;DHT22;62991;50.040;18.400;2022-09-12T12:19:03;18.60;59.50
74511;DHT22;62991;50.040;18.400;2022-09-12T12:22:17;18.70;59.50
74511;DHT22;62991;50.040;18.400;2022-09-12T12:25:24;18.80;59.40
74511;DHT22;62991;50.040;18.400;2022-09-12T12:35:37;19.00;59.10
74511;DHT22;62991;50.040;18.400;2022-09-12T12:38:39;19.20;59.30
74511;DHT22;62991;50.040;18.400;2022-09-12T12:41:44;19.30;59.30
74511;DHT22;62991;50.040;18.400;2022-09-12T12:47:55;19.60;59.00
74511;DHT22;62991;50.040;18.400;2022-09-12T12:57:47;19.70;58.30
74511;DHT22;62991;50.040;18.400;2022-09-12T13:01:18;19.70;58.10
74511;DHT22;62991;50.040;18.400;2022-09-12T13:04:26;19.70;58.10
74511;DHT22;62991;50.040;18.400;2022-09-12T13:07:38;19.80;57.90
74511;DHT22;62991;50.040;18.400;2022-09-12T13:10:52;19.80;57.60
74511;DHT22;62991;50.040;18.400;2022-09-12T13:14:00;19.80;57.60
74511;DHT22;62991;50.040;18.400;2022-09-12T13:17:04;19.80;57.50
74511;DHT22;62991;50.040;18.400;2022-09-12T13:23:26;20.10;57.50
74511;DHT22;62991;50.040;18.400;2022-09-12T13:26:32;20.40;57.40
74511;DHT22;62991;50.040;18.400;2022-09-12T13:29:33;20.60;57.00
74511;DHT22;62991;50.040;18.400;2022-09-12T13:32:34;21.00;56.90
74511;DHT22;62991;50.040;18.400;2022-09-12T13:35:49;21.50;56.70
74511;DHT22;62991;50.040;18.400;2022-09-12T13:45:23;22.90;54.60
74511;DHT22;62991;50.040;18.400;2022-09-12T13:48:26;23.00;53.90
74511;DHT22;62991;50.040;18.400;2022-09-12T13:51:29;22.90;53.50
74511;DHT22;62991;50.040;18.400;2022-09-12T13:54:31;22.70;53.00
74511;DHT22;62991;50.040;18.400;2022-09-12T13:57:38;22.40;53.00
74511;DHT22;62991;50.040;18.400;2022-09-12T14:00:40;22.10;53.10
74511;DHT22;62991;50.040;18.400;2022-09-12T14:03:49;21.80;53.40
74511;DHT22;62991;50.040;18.400;2022-09-12T14:07:14;21.60;53.50
74511;DHT22;62991;50.040;18.400;2022-09-12T14:10:21;21.30;53.80
74511;DHT22;62991;50.040;18.400;2022-09-12T14:13:24;21.10;53.90
74511;DHT22;62991;50.040;18.400;2022-09-12T14:16:25;20.90;54.10
74511;DHT22;62991;50.040;18.400;2022-09-12T14:19:28;20.70;54.40
74511;DHT22;62991;50.040;18.400;2022-09-12T14:22:29;20.60;54.50
74511;DHT22;62991;50.040;18.400;2022-09-12T14:25:37;20.40;54.60
74511;DHT22;62991;50.040;18.400;2022-09-12T14:28:44;20.30;54.80
74511;DHT22;62991;50.040;18.400;2022-09-12T14:32:00;20.10;55.00
74511;DHT22;62991;50.040;18.400;2022-09-12T14:38:22;19.90;55.30
74511;DHT22;62991;50.040;18.400;2022-09-12T14:41:33;19.80;55.60
74511;DHT22;62991;50.040;18.400;2022-09-12T14:44:35;19.80;55.70
74511;DHT22;62991;50.040;18.400;2022-09-12T14:47:39;19.70;55.80
74511;DHT22;62991;50.040;18.400;2022-09-12T14:50:41;19.70;56.00
74511;DHT22;62991;50.040;18.400;2022-09-12T14:53:47;19.60;56.10
74511;DHT22;62991;50.040;18.400;2022-09-12T14:56:55;19.60;56.10
74511;DHT22;62991;50.040;18.400;2022-09-12T15:00:25;19.50;56.10
74511;DHT22;62991;50.040;18.400;2022-09-12T15:03:48;19.40;56.20
74511;DHT22;62991;50.040;18.400;2022-09-12T15:06:50;19.40;56.30
74511;DHT22;62991;50.040;18.400;2022-09-12T15:09:51;19.40;56.40
74511;DHT22;62991;50.040;18.400;2022-09-12T15:16:09;19.40;56.70
74511;DHT22;62991;50.040;18.400;2022-09-12T15:19:11;19.40;56.70
74511;DHT22;62991;50.040;18.400;2022-09-12T15:22:12;19.50;56.70
74511;DHT22;62991;50.040;18.400;2022-09-12T15:25:13;19.40;56.60
74511;DHT22;62991;50.040;18.400;2022-09-12T15:28:19;19.40;56.60
74511;DHT22;62991;50.040;18.400;2022-09-12T15:31:26;19.40;56.60
74511;DHT22;62991;50.040;18.400;2022-09-12T15:34:27;19.40;56.70
74511;DHT22;62991;50.040;18.400;2022-09-12T15:37:28;19.40;56.80
74511;DHT22;62991;50.040;18.400;2022-09-12T15:40:29;19.40;56.90
74511;DHT22;62991;50.040;18.400;2022-09-12T15:43:29;19.30;56.90
74511;DHT22;62991;50.040;18.400;2022-09-12T15:46:30;19.30;56.90
74511;DHT22;62991;50.040;18.400;2022-09-12T15:49:31;19.30;56.90
74511;DHT22;62991;50.040;18.400;2022-09-12T15:52:31;19.30;57.00
74511;DHT22;62991;50.040;18.400;2022-09-12T15:55:32;19.30;57.00
74511;DHT22;62991;50.040;18.400;2022-09-12T15:58:33;19.20;57.10
74511;DHT22;62991;50.040;18.400;2022-09-12T16:01:34;19.20;57.10
74511;DHT22;62991;50.040;18.400;2022-09-12T16:04:35;19.20;57.10
74511;DHT22;62991;50.040;18.400;2022-09-12T16:07:35;19.20;57.20
74511;DHT22;62991;50.040;18.400;2022-09-12T16:10:36;19.30;57.20
74511;DHT22;62991;50.040;18.400;2022-09-12T16:13:37;19.30;57.20
74511;DHT22;62991;50.040;18.400;2022-09-12T16:16:38;19.40;57.10
74511;DHT22;62991;50.040;18.400;2022-09-12T16:19:38;19.50;57.10
74511;DHT22;62991;50.040;18.400;2022-09-12T16:22:40;19.50;56.90
74511;DHT22;62991;50.040;18.400;2022-09-12T16:25:40;19.60;56.90
74511;DHT22;62991;50.040;18.400;2022-09-12T16:28:42;19.60;56.90
74511;DHT22;62991;50.040;18.400;2022-09-12T16:31:43;19.70;56.90
74511;DHT22;62991;50.040;18.400;2022-09-12T16:34:44;19.70;56.90
74511;DHT22;62991;50.040;18.400;2022-09-12T16:37:45;19.80;56.80
74511;DHT22;62991;50.040;18.400;2022-09-12T16:40:45;19.70;56.80
74511;DHT22;62991;50.040;18.400;2022-09-12T16:43:46;19.80;56.80
74511;DHT22;62991;50.040;18.400;2022-09-12T16:46:47;19.70;56.90
74511;DHT22;62991;50.040;18.400;2022-09-12T16:49:49;19.70;56.90
74511;DHT22;62991;50.040;18.400;2022-09-12T16:52:50;19.70;57.00
74511;DHT22;62991;50.040;18.400;2022-09-12T16:55:51;19.70;57.00
74511;DHT22;62991;50.040;18.400;2022-09-12T16:58:52;19.60;57.10
74511;DHT22;62991;50.040;18.400;2022-09-12T17:01:53;19.60;57.10
74511;DHT22;62991;50.040;18.400;2022-09-12T17:04:53;19.60;57.20
74511;DHT22;62991;50.040;18.400;2022-09-12T17:07:54;19.50;57.30
74511;DHT22;62991;50.040;18.400;2022-09-12T17:11:04;19.50;57.40
74511;DHT22;62991;50.040;18.400;2022-09-12T17:14:06;19.40;57.50
74511;DHT22;62991;50.040;18.400;2022-09-12T17:17:07;19.40;57.60
74511;DHT22;62991;50.040;18.400;2022-09-12T17:20:08;19.30;57.60
74511;DHT22;62991;50.040;18.400;2022-09-12T17:23:09;19.30;57.70
74511;DHT22;62991;50.040;18.400;2022-09-12T17:26:10;19.20;57.80
74511;DHT22;62991;50.040;18.400;2022-09-12T17:29:12;19.20;57.80
74511;DHT22;62991;50.040;18.400;2022-09-12T17:32:13;19.20;57.90
74511;DHT22;62991;50.040;18.400;2022-09-12T17:35:14;19.10;58.00
74511;DHT22;62991;50.040;18.400;2022-09-12T17:38:15;19.10;58.10
74511;DHT22;62991;50.040;18.400;2022-09-12T17:41:21;19.10;58.10
74511;DHT22;62991;50.040;18.400;2022-09-12T17:44:22;19.10;58.20
74511;DHT22;62991;50.040;18.400;2022-09-12T17:47:23;19.10;58.30
74511;DHT22;62991;50.040;18.400;2022-09-12T17:50:24;19.00;58.40
74511;DHT22;62991;50.040;18.400;2022-09-12T17:53:25;19.00;58.40
74511;DHT22;62991;50.040;18.400;2022-09-12T17:56:27;19.00;58.50
74511;DHT22;62991;50.040;18.400;2022-09-12T17:59:28;19.00;58.70
74511;DHT22;62991;50.040;18.400;2022-09-12T18:02:29;18.90;58.70
74511;DHT22;62991;50.040;18.400;2022-09-12T18:05:30;18.90;58.80
74511;DHT22;62991;50.040;18.400;2022-09-12T18:08:31;18.90;58.90
74511;DHT22;62991;50.040;18.400;2022-09-12T18:11:32;18.80;59.00
74511;DHT22;62991;50.040;18.400;2022-09-12T18:14:33;18.80;59.10
74511;DHT22;62991;50.040;18.400;2022-09-12T18:17:34;18.80;59.20
74511;DHT22;62991;50.040;18.400;2022-09-12T18:20:34;18.80;59.30
74511;DHT22;62991;50.040;18.400;2022-09-12T18:23:35;18.70;59.40
74511;DHT22;62991;50.040;18.400;2022-09-12T18:26:36;18.70;59.50
74511;DHT22;62991;50.040;18.400;2022-09-12T18:29:37;18.70;59.60
74511;DHT22;62991;50.040;18.400;2022-09-12T18:32:38;18.70;59.70
74511;DHT22;62991;50.040;18.400;2022-09-12T18:35:39;18.60;59.70
74511;DHT22;62991;50.040;18.400;2022-09-12T18:38:40;18.60;59.90
74511;DHT22;62991;50.040;18.400;2022-09-12T18:41:41;18.60;60.00
74511;DHT22;62991;50.040;18.400;2022-09-12T18:44:42;18.50;60.00
74511;DHT22;62991;50.040;18.400;2022-09-12T18:47:43;18.50;60.10
74511;DHT22;62991;50.040;18.400;2022-09-12T18:50:44;18.50;60.20
74511;DHT22;62991;50.040;18.400;2022-09-12T18:53:53;18.40;60.30
74511;DHT22;62991;50.040;18.400;2022-09-12T18:56:55;18.40;60.40
74511;DHT22;62991;50.040;18.400;2022-09-12T18:59:56;18.40;60.40
74511;DHT22;62991;50.040;18.400;2022-09-12T19:02:59;18.30;60.50
74511;DHT22;62991;50.040;18.400;2022-09-12T19:06:00;18.30;60.60
74511;DHT22;62991;50.040;18.400;2022-09-12T19:09:01;18.30;60.60
74511;DHT22;62991;50.040;18.400;2022-09-12T19:12:01;18.30;60.60
74511;DHT22;62991;50.040;18.400;2022-09-12T19:15:02;18.20;60.70
74511;DHT22;62991;50.040;18.400;2022-09-12T19:18:04;18.20;60.70
74511;DHT22;62991;50.040;18.400;2022-09-12T19:21:06;18.20;60.70
74511;DHT22;62991;50.040;18.400;2022-09-12T19:24:08;18.20;60.80
74511;DHT22;62991;50.040;18.400;2022-09-12T19:27:09;18.10;60.90
74511;DHT22;62991;50.040;18.400;2022-09-12T19:30:12;18.10;60.90
74511;DHT22;62991;50.040;18.400;2022-09-12T19:33:13;18.00;61.00
74511;DHT22;62991;50.040;18.400;2022-09-12T19:36:17;18.00;61.10
74511;DHT22;62991;50.040;18.400;2022-09-12T19:39:18;18.00;61.00
74511;DHT22;62991;50.040;18.400;2022-09-12T19:42:19;18.00;61.10
74511;DHT22;62991;50.040;18.400;2022-09-12T19:45:19;18.00;61.00
74511;DHT22;62991;50.040;18.400;2022-09-12T19:48:20;17.90;61.00
74511;DHT22;62991;50.040;18.400;2022-09-12T19:51:22;17.90;61.10
74511;DHT22;62991;50.040;18.400;2022-09-12T19:54:23;17.90;61.10
74511;DHT22;62991;50.040;18.400;2022-09-12T19:57:24;17.90;61.10
74511;DHT22;62991;50.040;18.400;2022-09-12T20:00:24;17.90;61.10
74511;DHT22;62991;50.040;18.400;2022-09-12T20:03:26;17.80;61.10
74511;DHT22;62991;50.040;18.400;2022-09-12T20:06:27;17.80;61.10
74511;DHT22;62991;50.040;18.400;2022-09-12T20:09:27;17.80;61.00
74511;DHT22;62991;50.040;18.400;2022-09-12T20:12:28;17.80;61.00
74511;DHT22;62991;50.040;18.400;2022-09-12T20:15:29;17.80;61.10
74511;DHT22;62991;50.040;18.400;2022-09-12T20:18:30;17.80;61.10
74511;DHT22;62991;50.040;18.400;2022-09-12T20:21:31;17.70;61.20
74511;DHT22;62991;50.040;18.400;2022-09-12T20:24:33;17.70;61.20
74511;DHT22;62991;50.040;18.400;2022-09-12T20:27:34;17.70;61.20
74511;DHT22;62991;50.040;18.400;2022-09-12T20:30:35;17.70;61.20
74511;DHT22;62991;50.040;18.400;2022-09-12T20:33:36;17.70;61.10
74511;DHT22;62991;50.040;18.400;2022-09-12T20:36:36;17.70;61.10
74511;DHT22;62991;50.040;18.400;2022-09-12T20:39:37;17.70;61.20
74511;DHT22;62991;50.040;18.400;2022-09-12T20:42:38;17.70;61.20
74511;DHT22;62991;50.040;18.400;2022-09-12T20:45:42;17.70;61.20
74511;DHT22;62991;50.040;18.400;2022-09-12T20:48:42;17.70;61.20
74511;DHT22;62991;50.040;18.400;2022-09-12T20:51:43;17.70;61.20
74511;DHT22;62991;50.040;18.400;2022-09-12T20:54:44;17.70;61.20